sensor_id;sensor_type;location;lat;lon;timestamp;temperature;humidity
18321;DHT22;54904;54.350;18.664;2023-05-07T00:02:26;11.60;76.70
18321;DHT22;54904;54.350;18.664;2023-05-07T00:04:53;11.70;76.50
18321;DHT22;54904;54.350;18.664;2023-05-07T00:07:21;11.70;76.20
18321;DHT22;54904;54.350;18.664;2023-05-07T00:09:48;11.70;76.00
18321;DHT22;54904;54.350;18.664;2023-05-07T00:12:15;11.70;75.90
18321;DHT22;54904;54.350;18.664;2023-05-07T00:14:44;11.70;75.70
18321;DHT22;54904;54.350;18.664;2023-05-07T00:17:11;11.70;75.70
18321;DHT22;54904;54.350;18.664;2023-05-07T00:19:39;11.70;75.70
18321;DHT22;54904;54.350;18.664;2023-05-07T00:22:08;11.70;75.60
18321;DHT22;54904;54.350;18.664;2023-05-07T00:24:35;11.70;75.60
18321;DHT22;54904;54.350;18.664;2023-05-07T00:27:02;11.70;75.60
18321;DHT22;54904;54.350;18.664;2023-05-07T00:29:29;11.60;75.50
18321;DHT22;54904;54.350;18.664;2023-05-07T00:31:56;11.60;75.60
18321;DHT22;54904;54.350;18.664;2023-05-07T00:34:23;11.60;75.70
18321;DHT22;54904;54.350;18.664;2023-05-07T00:36:52;11.60;75.80
18321;DHT22;54904;54.350;18.664;2023-05-07T00:39:19;11.60;75.70
18321;DHT22;54904;54.350;18.664;2023-05-07T00:41:46;11.60;75.80
18321;DHT22;54904;54.350;18.664;2023-05-07T00:44:13;11.60;75.70
18321;DHT22;54904;54.350;18.664;2023-05-07T00:46:41;11.60;75.70
18321;DHT22;54904;54.350;18.664;2023-05-07T00:49:08;11.60;75.70
18321;DHT22;54904;54.350;18.664;2023-05-07T00:51:35;11.60;75.70
18321;DHT22;54904;54.350;18.664;2023-05-07T00:54:04;11.60;75.60
18321;DHT22;54904;54.350;18.664;2023-05-07T00:56:32;11.50;75.40
18321;DHT22;54904;54.350;18.664;2023-05-07T00:58:59;11.50;75.50
18321;DHT22;54904;54.350;18.664;2023-05-07T01:01:27;11.50;75.50
18321;DHT22;54904;54.350;18.664;2023-05-07T01:03:54;11.70;75.80
18321;DHT22;54904;54.350;18.664;2023-05-07T01:06:23;11.40;75.50
18321;DHT22;54904;54.350;18.664;2023-05-07T01:08:51;11.40;75.50
18321;DHT22;54904;54.350;18.664;2023-05-07T01:11:23;11.40;75.70
18321;DHT22;54904;54.350;18.664;2023-05-07T01:13:51;11.40;75.40
18321;DHT22;54904;54.350;18.664;2023-05-07T01:16:19;11.40;75.20
18321;DHT22;54904;54.350;18.664;2023-05-07T01:18:47;11.40;75.10
18321;DHT22;54904;54.350;18.664;2023-05-07T01:21:15;11.40;75.00
18321;DHT22;54904;54.350;18.664;2023-05-07T01:23:46;11.40;75.00
18321;DHT22;54904;54.350;18.664;2023-05-07T01:26:14;11.40;74.90
18321;DHT22;54904;54.350;18.664;2023-05-07T01:28:44;11.40;74.80
18321;DHT22;54904;54.350;18.664;2023-05-07T01:31:12;11.40;74.80
18321;DHT22;54904;54.350;18.664;2023-05-07T01:33:41;11.30;74.70
18321;DHT22;54904;54.350;18.664;2023-05-07T01:36:09;11.30;74.70
18321;DHT22;54904;54.350;18.664;2023-05-07T01:38:37;11.30;74.70
18321;DHT22;54904;54.350;18.664;2023-05-07T01:41:07;11.30;74.70
18321;DHT22;54904;54.350;18.664;2023-05-07T01:43:34;11.30;74.80
18321;DHT22;54904;54.350;18.664;2023-05-07T01:46:02;11.30;74.80
18321;DHT22;54904;54.350;18.664;2023-05-07T01:48:31;11.30;74.80
18321;DHT22;54904;54.350;18.664;2023-05-07T01:50:59;11.30;74.70
18321;DHT22;54904;54.350;18.664;2023-05-07T01:53:27;11.30;74.70
18321;DHT22;54904;54.350;18.664;2023-05-07T01:55:54;11.30;74.70
18321;DHT22;54904;54.350;18.664;2023-05-07T01:58:24;11.30;74.60
18321;DHT22;54904;54.350;18.664;2023-05-07T02:00:51;11.30;75.00
18321;DHT22;54904;54.350;18.664;2023-05-07T02:03:19;11.30;74.60
18321;DHT22;54904;54.350;18.664;2023-05-07T02:05:55;11.30;74.50
18321;DHT22;54904;54.350;18.664;2023-05-07T02:08:32;11.40;74.70
18321;DHT22;54904;54.350;18.664;2023-05-07T02:10:59;11.30;74.50
18321;DHT22;54904;54.350;18.664;2023-05-07T02:13:30;11.30;74.60
18321;DHT22;54904;54.350;18.664;2023-05-07T02:15:57;11.10;74.40
18321;DHT22;54904;54.350;18.664;2023-05-07T02:18:26;11.20;74.60
18321;DHT22;54904;54.350;18.664;2023-05-07T02:20:53;11.20;74.60
18321;DHT22;54904;54.350;18.664;2023-05-07T02:23:21;11.20;74.60
18321;DHT22;54904;54.350;18.664;2023-05-07T02:25:48;11.10;74.70
18321;DHT22;54904;54.350;18.664;2023-05-07T02:28:15;11.20;74.80
18321;DHT22;54904;54.350;18.664;2023-05-07T02:30:50;11.20;74.90
18321;DHT22;54904;54.350;18.664;2023-05-07T02:33:18;11.10;74.90
18321;DHT22;54904;54.350;18.664;2023-05-07T02:35:46;11.10;74.90
18321;DHT22;54904;54.350;18.664;2023-05-07T02:38:15;11.10;74.90
18321;DHT22;54904;54.350;18.664;2023-05-07T02:40:43;11.10;75.00
18321;DHT22;54904;54.350;18.664;2023-05-07T02:43:10;11.10;75.00
18321;DHT22;54904;54.350;18.664;2023-05-07T02:45:40;11.10;75.00
18321;DHT22;54904;54.350;18.664;2023-05-07T02:48:10;11.10;75.00
18321;DHT22;54904;54.350;18.664;2023-05-07T02:50:37;11.00;75.00
18321;DHT22;54904;54.350;18.664;2023-05-07T02:53:04;11.00;75.00
18321;DHT22;54904;54.350;18.664;2023-05-07T02:55:32;11.00;75.10
18321;DHT22;54904;54.350;18.664;2023-05-07T02:57:59;11.00;75.00
18321;DHT22;54904;54.350;18.664;2023-05-07T03:00:26;11.00;75.10
18321;DHT22;54904;54.350;18.664;2023-05-07T03:03:09;10.90;75.10
18321;DHT22;54904;54.350;18.664;2023-05-07T03:05:37;10.90;75.10
18321;DHT22;54904;54.350;18.664;2023-05-07T03:08:04;10.90;75.30
18321;DHT22;54904;54.350;18.664;2023-05-07T03:10:31;10.90;75.30
18321;DHT22;54904;54.350;18.664;2023-05-07T03:12:58;10.80;75.20
18321;DHT22;54904;54.350;18.664;2023-05-07T03:15:26;10.80;75.30
18321;DHT22;54904;54.350;18.664;2023-05-07T03:17:53;10.80;75.30
18321;DHT22;54904;54.350;18.664;2023-05-07T03:20:21;10.80;75.40
18321;DHT22;54904;54.350;18.664;2023-05-07T03:22:49;10.70;75.30
18321;DHT22;54904;54.350;18.664;2023-05-07T03:25:16;10.70;75.40
18321;DHT22;54904;54.350;18.664;2023-05-07T03:27:43;10.70;75.50
18321;DHT22;54904;54.350;18.664;2023-05-07T03:30:12;10.70;75.50
18321;DHT22;54904;54.350;18.664;2023-05-07T03:32:39;10.70;75.50
18321;DHT22;54904;54.350;18.664;2023-05-07T03:35:09;10.70;75.60
18321;DHT22;54904;54.350;18.664;2023-05-07T03:37:38;10.70;75.60
18321;DHT22;54904;54.350;18.664;2023-05-07T03:40:06;10.70;75.60
18321;DHT22;54904;54.350;18.664;2023-05-07T03:42:42;10.70;75.50
18321;DHT22;54904;54.350;18.664;2023-05-07T03:45:11;10.70;75.50
18321;DHT22;54904;54.350;18.664;2023-05-07T03:47:42;10.70;75.60
18321;DHT22;54904;54.350;18.664;2023-05-07T03:50:11;10.70;75.60
18321;DHT22;54904;54.350;18.664;2023-05-07T03:52:40;10.70;75.60
18321;DHT22;54904;54.350;18.664;2023-05-07T03:55:09;10.70;75.60
18321;DHT22;54904;54.350;18.664;2023-05-07T03:57:39;10.70;75.70
18321;DHT22;54904;54.350;18.664;2023-05-07T04:00:07;10.70;75.50
18321;DHT22;54904;54.350;18.664;2023-05-07T04:02:46;10.70;75.60
18321;DHT22;54904;54.350;18.664;2023-05-07T04:05:16;10.80;75.60
18321;DHT22;54904;54.350;18.664;2023-05-07T04:07:47;10.80;75.50
18321;DHT22;54904;54.350;18.664;2023-05-07T04:10:19;10.70;75.40
18321;DHT22;54904;54.350;18.664;2023-05-07T04:12:48;10.70;75.50
18321;DHT22;54904;54.350;18.664;2023-05-07T04:15:19;10.70;75.60
18321;DHT22;54904;54.350;18.664;2023-05-07T04:17:46;10.80;75.60
18321;DHT22;54904;54.350;18.664;2023-05-07T04:20:17;10.80;75.60
18321;DHT22;54904;54.350;18.664;2023-05-07T04:22:50;10.80;75.50
18321;DHT22;54904;54.350;18.664;2023-05-07T04:25:17;10.90;75.60
18321;DHT22;54904;54.350;18.664;2023-05-07T04:27:45;10.90;75.50
18321;DHT22;54904;54.350;18.664;2023-05-07T04:30:13;11.00;75.50
18321;DHT22;54904;54.350;18.664;2023-05-07T04:32:40;10.90;75.50
18321;DHT22;54904;54.350;18.664;2023-05-07T04:35:08;10.90;75.50
18321;DHT22;54904;54.350;18.664;2023-05-07T04:37:35;11.00;75.60
18321;DHT22;54904;54.350;18.664;2023-05-07T04:40:06;11.00;75.50
18321;DHT22;54904;54.350;18.664;2023-05-07T04:42:33;11.10;75.50
18321;DHT22;54904;54.350;18.664;2023-05-07T04:45:02;11.10;75.40
18321;DHT22;54904;54.350;18.664;2023-05-07T04:47:32;11.20;75.30
18321;DHT22;54904;54.350;18.664;2023-05-07T04:50:01;11.20;75.40
18321;DHT22;54904;54.350;18.664;2023-05-07T04:52:28;11.30;75.40
18321;DHT22;54904;54.350;18.664;2023-05-07T04:54:55;11.40;75.40
18321;DHT22;54904;54.350;18.664;2023-05-07T04:57:24;11.50;75.10
18321;DHT22;54904;54.350;18.664;2023-05-07T04:59:52;10.40;73.90
18321;DHT22;54904;54.350;18.664;2023-05-07T05:02:19;11.60;74.70
18321;DHT22;54904;54.350;18.664;2023-05-07T05:04:47;11.60;74.50
18321;DHT22;54904;54.350;18.664;2023-05-07T05:07:14;11.70;74.40
18321;DHT22;54904;54.350;18.664;2023-05-07T05:09:41;11.70;74.00
18321;DHT22;54904;54.350;18.664;2023-05-07T05:12:09;11.80;73.80
18321;DHT22;54904;54.350;18.664;2023-05-07T05:14:39;11.80;73.60
18321;DHT22;54904;54.350;18.664;2023-05-07T05:17:07;11.90;73.30
18321;DHT22;54904;54.350;18.664;2023-05-07T05:19:36;11.90;73.20
18321;DHT22;54904;54.350;18.664;2023-05-07T05:22:03;12.00;73.10
18321;DHT22;54904;54.350;18.664;2023-05-07T05:24:31;12.00;73.00
18321;DHT22;54904;54.350;18.664;2023-05-07T05:26:58;12.00;72.40
18321;DHT22;54904;54.350;18.664;2023-05-07T05:29:29;11.90;71.00
18321;DHT22;54904;54.350;18.664;2023-05-07T05:31:58;11.90;70.10
18321;DHT22;54904;54.350;18.664;2023-05-07T05:34:27;12.00;69.60
18321;DHT22;54904;54.350;18.664;2023-05-07T05:36:55;12.00;68.50
18321;DHT22;54904;54.350;18.664;2023-05-07T05:39:22;12.00;67.90
18321;DHT22;54904;54.350;18.664;2023-05-07T05:41:50;12.00;66.90
18321;DHT22;54904;54.350;18.664;2023-05-07T05:44:17;12.10;66.20
18321;DHT22;54904;54.350;18.664;2023-05-07T05:46:44;12.10;66.00
18321;DHT22;54904;54.350;18.664;2023-05-07T05:49:13;12.10;66.00
18321;DHT22;54904;54.350;18.664;2023-05-07T05:51:41;12.20;65.90
18321;DHT22;54904;54.350;18.664;2023-05-07T05:54:09;12.30;65.80
18321;DHT22;54904;54.350;18.664;2023-05-07T05:56:37;12.30;65.60
18321;DHT22;54904;54.350;18.664;2023-05-07T05:59:04;12.40;65.20
18321;DHT22;54904;54.350;18.664;2023-05-07T06:01:31;12.40;65.90
18321;DHT22;54904;54.350;18.664;2023-05-07T06:04:01;12.50;64.70
18321;DHT22;54904;54.350;18.664;2023-05-07T06:06:30;12.60;64.40
18321;DHT22;54904;54.350;18.664;2023-05-07T06:08:58;12.60;64.00
18321;DHT22;54904;54.350;18.664;2023-05-07T06:11:33;12.70;63.00
18321;DHT22;54904;54.350;18.664;2023-05-07T06:14:01;12.70;62.20
18321;DHT22;54904;54.350;18.664;2023-05-07T06:16:29;12.80;62.00
18321;DHT22;54904;54.350;18.664;2023-05-07T06:18:56;12.80;61.30
18321;DHT22;54904;54.350;18.664;2023-05-07T06:21:24;12.80;60.30
18321;DHT22;54904;54.350;18.664;2023-05-07T06:23:53;12.80;60.30
18321;DHT22;54904;54.350;18.664;2023-05-07T06:26:21;12.90;60.00
18321;DHT22;54904;54.350;18.664;2023-05-07T06:28:48;12.90;60.10
18321;DHT22;54904;54.350;18.664;2023-05-07T06:31:18;12.90;60.30
18321;DHT22;54904;54.350;18.664;2023-05-07T06:33:53;12.90;60.30
18321;DHT22;54904;54.350;18.664;2023-05-07T06:36:21;13.00;60.40
18321;DHT22;54904;54.350;18.664;2023-05-07T06:38:48;13.00;60.00
18321;DHT22;54904;54.350;18.664;2023-05-07T06:41:19;13.10;59.60
18321;DHT22;54904;54.350;18.664;2023-05-07T06:43:47;13.20;59.80
18321;DHT22;54904;54.350;18.664;2023-05-07T06:46:29;13.20;59.60
18321;DHT22;54904;54.350;18.664;2023-05-07T06:48:56;13.30;59.30
18321;DHT22;54904;54.350;18.664;2023-05-07T06:51:25;13.40;60.00
18321;DHT22;54904;54.350;18.664;2023-05-07T06:53:52;13.50;59.30
18321;DHT22;54904;54.350;18.664;2023-05-07T06:56:21;13.50;59.40
18321;DHT22;54904;54.350;18.664;2023-05-07T06:58:48;13.60;59.60
18321;DHT22;54904;54.350;18.664;2023-05-07T07:01:16;13.60;59.60
18321;DHT22;54904;54.350;18.664;2023-05-07T07:03:44;13.70;59.30
18321;DHT22;54904;54.350;18.664;2023-05-07T07:06:11;13.80;59.40
18321;DHT22;54904;54.350;18.664;2023-05-07T07:08:38;13.90;59.20
18321;DHT22;54904;54.350;18.664;2023-05-07T07:11:06;13.90;59.10
18321;DHT22;54904;54.350;18.664;2023-05-07T07:13:35;14.10;59.40
18321;DHT22;54904;54.350;18.664;2023-05-07T07:16:02;14.10;59.50
18321;DHT22;54904;54.350;18.664;2023-05-07T07:18:29;14.20;59.90
18321;DHT22;54904;54.350;18.664;2023-05-07T07:20:58;14.30;60.40
18321;DHT22;54904;54.350;18.664;2023-05-07T07:23:26;14.40;60.80
18321;DHT22;54904;54.350;18.664;2023-05-07T07:25:53;14.50;60.90
18321;DHT22;54904;54.350;18.664;2023-05-07T07:28:21;14.60;61.10
18321;DHT22;54904;54.350;18.664;2023-05-07T07:30:50;14.60;61.60
18321;DHT22;54904;54.350;18.664;2023-05-07T07:33:17;14.70;62.10
18321;DHT22;54904;54.350;18.664;2023-05-07T07:35:44;14.80;62.40
18321;DHT22;54904;54.350;18.664;2023-05-07T07:38:12;14.90;62.80
18321;DHT22;54904;54.350;18.664;2023-05-07T07:40:39;15.00;63.20
18321;DHT22;54904;54.350;18.664;2023-05-07T07:43:07;15.00;63.50
18321;DHT22;54904;54.350;18.664;2023-05-07T07:45:35;15.00;63.60
18321;DHT22;54904;54.350;18.664;2023-05-07T07:48:04;15.20;64.00
18321;DHT22;54904;54.350;18.664;2023-05-07T07:50:35;15.20;64.20
18321;DHT22;54904;54.350;18.664;2023-05-07T07:53:03;15.20;65.00
18321;DHT22;54904;54.350;18.664;2023-05-07T07:55:31;15.30;64.40
18321;DHT22;54904;54.350;18.664;2023-05-07T07:58:00;15.30;64.30
18321;DHT22;54904;54.350;18.664;2023-05-07T08:00:27;15.30;64.20
18321;DHT22;54904;54.350;18.664;2023-05-07T08:02:56;15.40;64.30
18321;DHT22;54904;54.350;18.664;2023-05-07T08:05:29;15.40;64.10
18321;DHT22;54904;54.350;18.664;2023-05-07T08:07:57;15.40;64.00
18321;DHT22;54904;54.350;18.664;2023-05-07T08:10:29;15.60;64.00
18321;DHT22;54904;54.350;18.664;2023-05-07T08:13:03;15.70;63.80
18321;DHT22;54904;54.350;18.664;2023-05-07T08:15:33;15.80;63.50
18321;DHT22;54904;54.350;18.664;2023-05-07T08:20:29;16.00;63.10
18321;DHT22;54904;54.350;18.664;2023-05-07T08:22:57;16.10;62.80
18321;DHT22;54904;54.350;18.664;2023-05-07T08:25:26;16.20;62.50
18321;DHT22;54904;54.350;18.664;2023-05-07T08:27:53;16.30;62.10
18321;DHT22;54904;54.350;18.664;2023-05-07T08:30:21;16.40;61.80
18321;DHT22;54904;54.350;18.664;2023-05-07T08:32:48;16.40;61.20
18321;DHT22;54904;54.350;18.664;2023-05-07T08:35:16;16.50;61.10
18321;DHT22;54904;54.350;18.664;2023-05-07T08:37:44;16.60;60.60
18321;DHT22;54904;54.350;18.664;2023-05-07T08:40:12;16.70;60.30
18321;DHT22;54904;54.350;18.664;2023-05-07T08:42:40;16.70;60.00
18321;DHT22;54904;54.350;18.664;2023-05-07T08:45:10;16.80;60.00
18321;DHT22;54904;54.350;18.664;2023-05-07T08:47:43;16.80;60.00
18321;DHT22;54904;54.350;18.664;2023-05-07T08:50:11;16.90;60.20
18321;DHT22;54904;54.350;18.664;2023-05-07T08:52:39;17.00;60.00
18321;DHT22;54904;54.350;18.664;2023-05-07T08:55:09;17.00;59.90
18321;DHT22;54904;54.350;18.664;2023-05-07T08:57:37;17.10;59.80
18321;DHT22;54904;54.350;18.664;2023-05-07T09:00:05;17.20;59.60
18321;DHT22;54904;54.350;18.664;2023-05-07T09:02:35;17.20;59.00
18321;DHT22;54904;54.350;18.664;2023-05-07T09:05:03;17.20;58.60
18321;DHT22;54904;54.350;18.664;2023-05-07T09:07:31;17.20;58.40
18321;DHT22;54904;54.350;18.664;2023-05-07T09:10:00;17.20;58.40
18321;DHT22;54904;54.350;18.664;2023-05-07T09:12:29;17.30;58.60
18321;DHT22;54904;54.350;18.664;2023-05-07T09:14:59;17.30;58.60
18321;DHT22;54904;54.350;18.664;2023-05-07T09:17:28;17.40;58.70
18321;DHT22;54904;54.350;18.664;2023-05-07T09:19:55;17.40;59.30
18321;DHT22;54904;54.350;18.664;2023-05-07T09:22:22;17.50;58.90
18321;DHT22;54904;54.350;18.664;2023-05-07T09:24:59;17.60;58.70
18321;DHT22;54904;54.350;18.664;2023-05-07T09:27:29;17.70;58.30
18321;DHT22;54904;54.350;18.664;2023-05-07T09:29:58;17.70;58.00
18321;DHT22;54904;54.350;18.664;2023-05-07T09:32:25;17.70;58.00
18321;DHT22;54904;54.350;18.664;2023-05-07T09:34:54;17.70;58.10
18321;DHT22;54904;54.350;18.664;2023-05-07T09:37:26;17.80;58.10
18321;DHT22;54904;54.350;18.664;2023-05-07T09:39:54;17.80;58.00
18321;DHT22;54904;54.350;18.664;2023-05-07T09:42:23;17.90;57.70
18321;DHT22;54904;54.350;18.664;2023-05-07T09:44:55;17.90;57.70
18321;DHT22;54904;54.350;18.664;2023-05-07T09:47:32;18.00;57.50
18321;DHT22;54904;54.350;18.664;2023-05-07T09:50:06;18.10;57.00
18321;DHT22;54904;54.350;18.664;2023-05-07T09:52:37;18.10;55.00
18321;DHT22;54904;54.350;18.664;2023-05-07T09:55:07;18.10;54.80
18321;DHT22;54904;54.350;18.664;2023-05-07T09:57:38;18.20;54.70
18321;DHT22;54904;54.350;18.664;2023-05-07T10:00:10;18.20;54.40
18321;DHT22;54904;54.350;18.664;2023-05-07T10:02:49;18.30;54.40
18321;DHT22;54904;54.350;18.664;2023-05-07T10:05:21;18.30;54.30
18321;DHT22;54904;54.350;18.664;2023-05-07T10:07:50;18.40;54.30
18321;DHT22;54904;54.350;18.664;2023-05-07T10:10:20;18.50;54.30
18321;DHT22;54904;54.350;18.664;2023-05-07T10:12:48;18.50;54.20
18321;DHT22;54904;54.350;18.664;2023-05-07T10:15:26;18.60;54.40
18321;DHT22;54904;54.350;18.664;2023-05-07T10:17:55;18.70;54.30
18321;DHT22;54904;54.350;18.664;2023-05-07T10:20:25;18.70;54.10
18321;DHT22;54904;54.350;18.664;2023-05-07T10:22:56;18.80;54.00
18321;DHT22;54904;54.350;18.664;2023-05-07T10:25:32;18.90;54.00
18321;DHT22;54904;54.350;18.664;2023-05-07T10:28:08;18.90;53.20
18321;DHT22;54904;54.350;18.664;2023-05-07T10:30:51;18.90;52.50
18321;DHT22;54904;54.350;18.664;2023-05-07T10:33:26;18.90;52.70
18321;DHT22;54904;54.350;18.664;2023-05-07T10:35:58;18.90;51.40
18321;DHT22;54904;54.350;18.664;2023-05-07T10:38:27;18.90;51.20
18321;DHT22;54904;54.350;18.664;2023-05-07T10:40:54;19.00;50.20
18321;DHT22;54904;54.350;18.664;2023-05-07T10:43:22;19.00;50.00
18321;DHT22;54904;54.350;18.664;2023-05-07T10:46:14;19.10;48.70
18321;DHT22;54904;54.350;18.664;2023-05-07T10:49:10;19.10;47.80
18321;DHT22;54904;54.350;18.664;2023-05-07T10:52:14;19.10;47.10
18321;DHT22;54904;54.350;18.664;2023-05-07T10:55:19;19.10;47.60
18321;DHT22;54904;54.350;18.664;2023-05-07T10:58:23;19.20;47.20
18321;DHT22;54904;54.350;18.664;2023-05-07T11:00:57;19.20;47.10
18321;DHT22;54904;54.350;18.664;2023-05-07T11:03:31;19.10;47.00
18321;DHT22;54904;54.350;18.664;2023-05-07T11:06:10;19.10;47.30
18321;DHT22;54904;54.350;18.664;2023-05-07T11:08:58;19.10;47.30
18321;DHT22;54904;54.350;18.664;2023-05-07T11:11:45;19.10;47.20
18321;DHT22;54904;54.350;18.664;2023-05-07T11:14:44;19.10;46.90
18321;DHT22;54904;54.350;18.664;2023-05-07T11:17:23;19.10;47.30
18321;DHT22;54904;54.350;18.664;2023-05-07T11:20:01;19.10;47.60
18321;DHT22;54904;54.350;18.664;2023-05-07T11:22:43;19.20;47.80
18321;DHT22;54904;54.350;18.664;2023-05-07T11:25:34;19.30;48.10
18321;DHT22;54904;54.350;18.664;2023-05-07T11:28:14;19.10;47.80
18321;DHT22;54904;54.350;18.664;2023-05-07T11:30:58;19.10;47.80
18321;DHT22;54904;54.350;18.664;2023-05-07T11:33:26;19.10;47.60
18321;DHT22;54904;54.350;18.664;2023-05-07T11:35:56;19.10;47.30
18321;DHT22;54904;54.350;18.664;2023-05-07T11:38:34;19.20;47.40
18321;DHT22;54904;54.350;18.664;2023-05-07T11:41:01;19.20;47.20
18321;DHT22;54904;54.350;18.664;2023-05-07T11:43:30;19.30;46.90
18321;DHT22;54904;54.350;18.664;2023-05-07T11:46:05;19.30;46.90
18321;DHT22;54904;54.350;18.664;2023-05-07T11:48:33;19.40;47.20
18321;DHT22;54904;54.350;18.664;2023-05-07T11:51:03;19.30;45.50
18321;DHT22;54904;54.350;18.664;2023-05-07T11:53:36;19.20;46.10
18321;DHT22;54904;54.350;18.664;2023-05-07T11:56:07;19.20;45.90
18321;DHT22;54904;54.350;18.664;2023-05-07T11:58:34;19.20;45.40
18321;DHT22;54904;54.350;18.664;2023-05-07T12:01:02;19.20;45.50
18321;DHT22;54904;54.350;18.664;2023-05-07T12:03:29;19.20;45.60
18321;DHT22;54904;54.350;18.664;2023-05-07T12:05:56;19.10;45.50
18321;DHT22;54904;54.350;18.664;2023-05-07T12:08:25;19.20;45.70
18321;DHT22;54904;54.350;18.664;2023-05-07T12:10:52;19.30;45.30
18321;DHT22;54904;54.350;18.664;2023-05-07T12:13:20;19.10;44.80
18321;DHT22;54904;54.350;18.664;2023-05-07T12:15:50;19.20;45.00
18321;DHT22;54904;54.350;18.664;2023-05-07T12:18:18;19.20;44.00
18321;DHT22;54904;54.350;18.664;2023-05-07T12:20:45;19.10;44.20
18321;DHT22;54904;54.350;18.664;2023-05-07T12:23:13;19.10;44.50
18321;DHT22;54904;54.350;18.664;2023-05-07T12:25:43;19.10;45.00
18321;DHT22;54904;54.350;18.664;2023-05-07T12:28:13;19.00;44.80
18321;DHT22;54904;54.350;18.664;2023-05-07T12:30:42;19.10;45.30
18321;DHT22;54904;54.350;18.664;2023-05-07T12:33:10;19.20;46.40
18321;DHT22;54904;54.350;18.664;2023-05-07T12:35:39;19.30;46.10
18321;DHT22;54904;54.350;18.664;2023-05-07T12:38:08;19.40;46.50
18321;DHT22;54904;54.350;18.664;2023-05-07T12:40:37;19.40;46.70
18321;DHT22;54904;54.350;18.664;2023-05-07T12:43:05;19.40;46.90
18321;DHT22;54904;54.350;18.664;2023-05-07T12:45:37;19.40;47.20
18321;DHT22;54904;54.350;18.664;2023-05-07T12:48:05;19.40;47.60
18321;DHT22;54904;54.350;18.664;2023-05-07T12:50:32;19.40;47.50
18321;DHT22;54904;54.350;18.664;2023-05-07T12:53:00;19.40;47.60
18321;DHT22;54904;54.350;18.664;2023-05-07T12:55:32;19.40;47.60
18321;DHT22;54904;54.350;18.664;2023-05-07T12:58:01;19.40;47.70
18321;DHT22;54904;54.350;18.664;2023-05-07T13:00:37;19.50;47.80
18321;DHT22;54904;54.350;18.664;2023-05-07T13:03:04;19.50;47.80
18321;DHT22;54904;54.350;18.664;2023-05-07T13:05:32;19.50;47.70
18321;DHT22;54904;54.350;18.664;2023-05-07T13:08:01;19.60;47.90
18321;DHT22;54904;54.350;18.664;2023-05-07T13:10:31;19.60;47.60
18321;DHT22;54904;54.350;18.664;2023-05-07T13:12:59;19.50;47.10
18321;DHT22;54904;54.350;18.664;2023-05-07T13:15:27;19.50;46.40
18321;DHT22;54904;54.350;18.664;2023-05-07T13:17:55;19.40;45.90
18321;DHT22;54904;54.350;18.664;2023-05-07T13:20:22;19.40;46.30
18321;DHT22;54904;54.350;18.664;2023-05-07T13:22:49;19.40;46.00
18321;DHT22;54904;54.350;18.664;2023-05-07T13:25:17;19.50;46.00
18321;DHT22;54904;54.350;18.664;2023-05-07T13:27:44;19.40;45.80
18321;DHT22;54904;54.350;18.664;2023-05-07T13:30:12;19.40;45.40
18321;DHT22;54904;54.350;18.664;2023-05-07T13:32:39;19.40;46.20
18321;DHT22;54904;54.350;18.664;2023-05-07T13:35:08;19.40;45.50
18321;DHT22;54904;54.350;18.664;2023-05-07T13:37:36;19.30;45.00
18321;DHT22;54904;54.350;18.664;2023-05-07T13:40:04;19.20;44.80
18321;DHT22;54904;54.350;18.664;2023-05-07T13:42:31;19.10;44.50
18321;DHT22;54904;54.350;18.664;2023-05-07T13:44:59;19.00;43.90
18321;DHT22;54904;54.350;18.664;2023-05-07T13:47:29;19.00;44.30
18321;DHT22;54904;54.350;18.664;2023-05-07T13:49:56;18.90;44.10
18321;DHT22;54904;54.350;18.664;2023-05-07T13:52:24;18.80;44.00
18321;DHT22;54904;54.350;18.664;2023-05-07T13:54:52;18.70;43.90
18321;DHT22;54904;54.350;18.664;2023-05-07T13:57:20;18.70;43.80
18321;DHT22;54904;54.350;18.664;2023-05-07T13:59:48;18.60;43.90
18321;DHT22;54904;54.350;18.664;2023-05-07T14:02:15;18.50;43.40
18321;DHT22;54904;54.350;18.664;2023-05-07T14:04:42;18.50;43.20
18321;DHT22;54904;54.350;18.664;2023-05-07T14:07:10;18.40;42.80
18321;DHT22;54904;54.350;18.664;2023-05-07T14:09:41;18.30;42.70
18321;DHT22;54904;54.350;18.664;2023-05-07T14:12:11;18.30;42.90
18321;DHT22;54904;54.350;18.664;2023-05-07T14:14:39;17.40;42.70
18321;DHT22;54904;54.350;18.664;2023-05-07T14:17:06;18.20;43.10
18321;DHT22;54904;54.350;18.664;2023-05-07T14:22:36;18.10;43.10
18321;DHT22;54904;54.350;18.664;2023-05-07T14:25:07;18.10;43.40
18321;DHT22;54904;54.350;18.664;2023-05-07T14:27:35;18.10;44.20
18321;DHT22;54904;54.350;18.664;2023-05-07T14:30:02;18.10;43.40
18321;DHT22;54904;54.350;18.664;2023-05-07T14:32:29;18.00;43.10
18321;DHT22;54904;54.350;18.664;2023-05-07T14:34:56;18.00;43.10
18321;DHT22;54904;54.350;18.664;2023-05-07T14:37:24;17.90;42.80
18321;DHT22;54904;54.350;18.664;2023-05-07T14:39:51;17.90;43.00
18321;DHT22;54904;54.350;18.664;2023-05-07T14:42:19;17.90;43.00
18321;DHT22;54904;54.350;18.664;2023-05-07T14:44:49;17.80;43.00
18321;DHT22;54904;54.350;18.664;2023-05-07T14:47:16;17.70;43.20
18321;DHT22;54904;54.350;18.664;2023-05-07T14:49:46;17.80;43.50
18321;DHT22;54904;54.350;18.664;2023-05-07T14:52:13;17.70;43.60
18321;DHT22;54904;54.350;18.664;2023-05-07T14:54:41;17.80;43.80
18321;DHT22;54904;54.350;18.664;2023-05-07T14:57:09;17.70;43.80
18321;DHT22;54904;54.350;18.664;2023-05-07T14:59:40;17.80;43.90
18321;DHT22;54904;54.350;18.664;2023-05-07T15:02:15;17.70;43.90
18321;DHT22;54904;54.350;18.664;2023-05-07T15:04:44;17.80;44.60
18321;DHT22;54904;54.350;18.664;2023-05-07T15:07:12;17.70;44.10
18321;DHT22;54904;54.350;18.664;2023-05-07T15:09:41;17.70;44.40
18321;DHT22;54904;54.350;18.664;2023-05-07T15:12:08;17.70;44.80
18321;DHT22;54904;54.350;18.664;2023-05-07T15:14:39;17.40;44.90
18321;DHT22;54904;54.350;18.664;2023-05-07T15:17:07;17.70;45.40
18321;DHT22;54904;54.350;18.664;2023-05-07T15:19:34;17.70;45.60
18321;DHT22;54904;54.350;18.664;2023-05-07T15:22:02;17.70;45.70
18321;DHT22;54904;54.350;18.664;2023-05-07T15:24:30;17.70;45.70
18321;DHT22;54904;54.350;18.664;2023-05-07T15:26:58;17.60;45.70
18321;DHT22;54904;54.350;18.664;2023-05-07T15:29:25;17.60;45.80
18321;DHT22;54904;54.350;18.664;2023-05-07T15:31:53;17.60;45.90
18321;DHT22;54904;54.350;18.664;2023-05-07T15:34:21;17.60;46.00
18321;DHT22;54904;54.350;18.664;2023-05-07T15:36:50;17.50;45.90